Time;durP1;ratioP1;P1;durP2;ratioP2;P2;SDS_P1;SDS_P2;PMS_P1;PMS_P2;Temp;Humidity;BMP_temperature;BMP_pressure;BME280_temperature;BME280_humidity;BME280_pressure;Samples;Min_cycle;Max_cycle;Signal;HPM_P1;HPM_P2
2023/12/11 00:01:12;;;;;;;17.48;3.90;;;;;;;-148.88;100.00;-17125.47;5075454;28;20020;-87
2023/12/11 00:03:38;;;;;;;13.40;2.15;;;;;;;-148.88;100.00;-17125.47;5074203;28;20394;-87
2023/12/11 00:06:07;;;;;;;13.80;3.50;;;;;;;-148.88;100.00;-17125.47;5074816;28;20025;-88
2023/12/11 00:08:32;;;;;;;20.10;4.03;;;;;;;-148.88;100.00;-17125.47;5075384;28;20035;-87
2023/12/11 00:10:58;;;;;;;15.88;4.00;;;;;;;-148.88;100.00;-17125.47;5075154;28;20115;-87
2023/12/11 00:13:24;;;;;;;13.38;3.78;;;;;;;-148.88;100.00;-17125.47;5074127;28;20032;-88
2023/12/11 00:15:49;;;;;;;13.73;2.55;;;;;;;-148.88;100.00;-17125.47;5075448;28;20021;-88
2023/12/11 00:18:15;;;;;;;16.13;3.72;;;;;;;-148.88;100.00;-17125.47;5074040;28;20105;-87
2023/12/11 00:20:40;;;;;;;11.55;2.60;;;;;;;-148.88;100.00;-17125.47;5075293;28;20020;-87
2023/12/11 00:23:09;;;;;;;19.98;4.90;;;;;;;-148.88;100.00;-17125.47;5075391;28;20043;-89
2023/12/11 00:25:35;;;;;;;11.75;3.88;;;;;;;-148.88;100.00;-17125.47;5075414;28;20020;-86
2023/12/11 00:28:01;;;;;;;15.32;4.20;;;;;;;-148.88;100.00;-17125.47;5075197;28;20028;-87
2023/12/11 00:30:26;;;;;;;18.20;4.28;;;;;;;-148.88;100.00;-17125.47;5075118;28;20047;-85
2023/12/11 00:32:53;;;;;;;13.65;4.13;;;;;;;-148.88;100.00;-17125.47;5075088;28;20499;-87
2023/12/11 00:35:18;;;;;;;9.98;2.63;;;;;;;-148.88;100.00;-17125.47;5074617;28;20387;-87
2023/12/11 00:37:43;;;;;;;12.90;2.70;;;;;;;-148.88;100.00;-17125.47;5074564;28;20063;-87
2023/12/11 00:40:09;;;;;;;16.60;2.60;;;;;;;-148.88;100.00;-17125.47;5075101;28;20048;-87
2023/12/11 00:42:35;;;;;;;19.60;4.93;;;;;;;-148.88;100.00;-17125.47;5074195;28;20025;-86
2023/12/11 00:45:00;;;;;;;12.88;3.05;;;;;;;-148.88;100.00;-17125.47;5073550;28;20033;-84
2023/12/11 00:47:25;;;;;;;12.00;2.55;;;;;;;-148.88;100.00;-17125.47;5074010;28;20048;-86
2023/12/11 00:49:54;;;;;;;14.75;2.42;;;;;;;-148.88;100.00;-17125.47;5073552;28;20035;-85
2023/12/11 00:52:19;;;;;;;28.65;5.22;;;;;;;-148.88;100.00;-17125.47;5073345;28;20020;-86
2023/12/11 00:54:45;;;;;;;12.20;2.55;;;;;;;-148.88;100.00;-17125.47;5073620;28;20058;-85
2023/12/11 00:57:11;;;;;;;17.75;4.60;;;;;;;-148.88;100.00;-17125.47;5073719;28;20182;-86
2023/12/11 00:59:38;;;;;;;25.77;5.13;;;;;;;-148.88;100.00;-17125.47;5073520;28;20040;-85
2023/12/11 01:02:04;;;;;;;12.50;2.58;;;;;;;-148.88;100.00;-17125.47;5073626;28;20024;-87
2023/12/11 01:04:38;;;;;;;15.32;4.05;;;;;;;-148.88;100.00;-17125.47;5074307;28;20059;-85
2023/12/11 01:07:04;;;;;;;14.85;2.40;;;;;;;-148.88;100.00;-17125.47;5073191;28;20479;-87
2023/12/11 01:09:29;;;;;;;16.42;4.22;;;;;;;-148.88;100.00;-17125.47;5064036;22;20037;-77
2023/12/11 01:11:55;;;;;;;22.38;4.32;;;;;;;-148.88;100.00;-17125.47;5034343;28;20033;-76
2023/12/11 01:14:20;;;;;;;14.48;1.88;;;;;;;-148.88;100.00;-17125.47;5034842;28;20167;-76
2023/12/11 01:16:46;;;;;;;13.02;2.72;;;;;;;-148.88;100.00;-17125.47;5034210;28;20174;-76
2023/12/11 01:19:11;;;;;;;13.35;2.50;;;;;;;-148.88;100.00;-17125.47;5033513;28;20029;-76
2023/12/11 01:21:36;;;;;;;17.02;2.50;;;;;;;-148.88;100.00;-17125.47;5033419;28;20071;-76
2023/12/11 01:24:02;;;;;;;21.30;5.22;;;;;;;-148.88;100.00;-17125.47;5033372;28;20501;-76
2023/12/11 01:26:27;;;;;;;7.75;2.70;;;;;;;-148.88;100.00;-17125.47;5033108;28;20049;-76
2023/12/11 01:28:53;;;;;;;17.35;4.93;;;;;;;-148.88;100.00;-17125.47;5031971;28;20040;-76
2023/12/11 01:31:18;;;;;;;26.63;5.63;;;;;;;-148.88;100.00;-17125.47;5032108;28;20080;-76
2023/12/11 01:33:44;;;;;;;13.45;2.63;;;;;;;-148.88;100.00;-17125.47;5033492;28;20021;-76
2023/12/11 01:36:09;;;;;;;12.73;2.83;;;;;;;-148.88;100.00;-17125.47;5032992;28;20506;-77
2023/12/11 01:38:35;;;;;;;19.00;5.22;;;;;;;-148.88;100.00;-17125.47;5033295;28;20048;-77
2023/12/11 01:41:00;;;;;;;15.57;3.00;;;;;;;-148.88;100.00;-17125.47;5031671;28;20041;-76
2023/12/11 01:43:26;;;;;;;16.42;5.47;;;;;;;-148.88;100.00;-17125.47;5033228;28;20051;-77
2023/12/11 01:46:03;;;;;;;21.20;5.65;;;;;;;-148.88;100.00;-17125.47;5033165;28;20018;-77
2023/12/11 01:48:28;;;;;;;18.08;4.80;;;;;;;-148.88;100.00;-17125.47;5033983;28;20484;-76
2023/12/11 01:50:54;;;;;;;12.82;2.97;;;;;;;-148.88;100.00;-17125.47;5033460;28;20083;-76
2023/12/11 01:53:20;;;;;;;23.10;5.45;;;;;;;-148.88;100.00;-17125.47;5032102;28;20080;-76
2023/12/11 01:55:48;;;;;;;21.13;3.28;;;;;;;-148.88;100.00;-17125.47;5031837;28;20027;-76
2023/12/11 01:58:14;;;;;;;12.93;3.33;;;;;;;-148.88;100.00;-17125.47;5031741;28;20029;-76
2023/12/11 02:00:39;;;;;;;19.70;5.30;;;;;;;-148.88;100.00;-17125.47;5031608;28;20075;-76
2023/12/11 02:03:05;;;;;;;24.80;6.63;;;;;;;-148.88;100.00;-17125.47;5032583;28;20097;-76
2023/12/11 02:05:31;;;;;;;19.67;6.38;;;;;;;-148.88;100.00;-17125.47;5032586;28;20017;-76
2023/12/11 02:07:56;;;;;;;17.35;5.25;;;;;;;-148.88;100.00;-17125.47;5031273;28;20052;-76
2023/12/11 02:10:21;;;;;;;25.45;6.00;;;;;;;-148.88;100.00;-17125.47;5031319;28;20072;-78
2023/12/11 02:12:47;;;;;;;15.13;2.95;;;;;;;-148.88;100.00;-17125.47;5032697;28;20029;-77
2023/12/11 02:15:12;;;;;;;14.13;4.32;;;;;;;-148.88;100.00;-17125.47;5031403;28;20029;-77
2023/12/11 02:17:38;;;;;;;22.60;6.45;;;;;;;-148.88;100.00;-17125.47;5032769;28;20049;-77
2023/12/11 02:20:05;;;;;;;22.38;5.22;;;;;;;-148.88;100.00;-17125.47;5033533;28;20037;-77
2023/12/11 02:22:30;;;;;;;16.40;3.42;;;;;;;-148.88;100.00;-17125.47;5037080;28;20028;-77
2023/12/11 02:25:02;;;;;;;13.30;3.13;;;;;;;-148.88;100.00;-17125.47;5037792;28;20029;-77
2023/12/11 02:27:28;;;;;;;21.80;5.95;;;;;;;-148.88;100.00;-17125.47;5037469;28;20057;-77
2023/12/11 02:29:55;;;;;;;20.13;5.55;;;;;;;-148.88;100.00;-17125.47;5035655;28;20045;-77
2023/12/11 02:32:20;;;;;;;22.45;3.80;;;;;;;-148.88;100.00;-17125.47;5036806;28;20057;-77
2023/12/11 02:34:47;;;;;;;10.93;3.00;;;;;;;-148.88;100.00;-17125.47;5036643;28;20029;-77
2023/12/11 02:37:13;;;;;;;29.33;6.68;;;;;;;-148.88;100.00;-17125.47;5036844;28;20029;-77
2023/12/11 02:39:38;;;;;;;27.02;6.05;;;;;;;-148.88;100.00;-17125.47;5036637;28;20025;-77
2023/12/11 02:42:04;;;;;;;20.80;4.38;;;;;;;-148.88;100.00;-17125.47;5035252;28;20026;-77
2023/12/11 02:44:30;;;;;;;18.55;3.20;;;;;;;-148.88;100.00;-17125.47;5036410;28;20114;-77
2023/12/11 02:46:55;;;;;;;25.95;6.10;;;;;;;-148.88;100.00;-17125.47;5036388;28;20028;-77
2023/12/11 02:49:20;;;;;;;22.95;5.95;;;;;;;-148.88;100.00;-17125.47;5034986;28;20123;-77
2023/12/11 02:51:46;;;;;;;22.90;5.82;;;;;;;-148.88;100.00;-17125.47;5036659;28;20022;-77
2023/12/11 02:54:11;;;;;;;17.80;3.47;;;;;;;-148.88;100.00;-17125.47;5036264;28;20028;-77
2023/12/11 02:56:40;;;;;;;13.35;3.00;;;;;;;-148.88;100.00;-17125.47;5035037;28;20496;-77
2023/12/11 02:59:05;;;;;;;25.92;4.20;;;;;;;-148.88;100.00;-17125.47;5035278;28;20067;-77
2023/12/11 03:01:31;;;;;;;13.90;3.45;;;;;;;-148.88;100.00;-17125.47;5036944;28;20100;-77
2023/12/11 03:03:56;;;;;;;30.17;6.50;;;;;;;-148.88;100.00;-17125.47;5036286;28;20504;-77
2023/12/11 03:06:22;;;;;;;25.85;6.38;;;;;;;-148.88;100.00;-17125.47;5036793;28;20032;-77
2023/12/11 03:08:47;;;;;;;24.73;6.03;;;;;;;-148.88;100.00;-17125.47;5036062;28;20044;-76
2023/12/11 03:11:13;;;;;;;11.30;3.28;;;;;;;-148.88;100.00;-17125.47;5034478;28;20036;-77
2023/12/11 03:13:38;;;;;;;24.30;6.38;;;;;;;-148.88;100.00;-17125.47;5035879;28;20029;-77
2023/12/11 03:16:04;;;;;;;18.90;4.20;;;;;;;-148.88;100.00;-17125.47;5035830;28;20530;-77
2023/12/11 03:18:29;;;;;;;20.75;3.55;;;;;;;-148.88;100.00;-17125.47;5034580;28;20033;-77
2023/12/11 03:20:55;;;;;;;31.23;7.13;;;;;;;-148.88;100.00;-17125.47;5035558;28;20151;-77
2023/12/11 03:23:20;;;;;;;10.15;3.22;;;;;;;-148.88;100.00;-17125.47;5035840;28;20029;-77
2023/12/11 03:25:46;;;;;;;17.17;3.63;;;;;;;-148.88;100.00;-17125.47;5035820;28;20064;-77
2023/12/11 03:28:11;;;;;;;28.58;6.10;;;;;;;-148.88;100.00;-17125.47;5035809;28;20036;-77
2023/12/11 03:30:36;;;;;;;26.95;4.22;;;;;;;-148.88;100.00;-17125.47;5035526;28;20025;-77
2023/12/11 03:33:02;;;;;;;29.10;6.80;;;;;;;-148.88;100.00;-17125.47;5033895;28;20056;-77
2023/12/11 03:35:27;;;;;;;27.85;6.65;;;;;;;-148.88;100.00;-17125.47;5034517;28;20061;-77
2023/12/11 03:37:52;;;;;;;25.48;3.47;;;;;;;-148.88;100.00;-17125.47;5036392;28;20026;-77
2023/12/11 03:40:18;;;;;;;18.08;3.72;;;;;;;-148.88;100.00;-17125.47;5035119;28;20040;-77
2023/12/11 03:42:43;;;;;;;17.83;3.15;;;;;;;-148.88;100.00;-17125.47;5035129;28;20444;-77
2023/12/11 03:45:09;;;;;;;30.25;6.22;;;;;;;-148.88;100.00;-17125.47;5037158;28;20021;-77
2023/12/11 03:47:34;;;;;;;20.60;3.67;;;;;;;-148.88;100.00;-17125.47;5035214;28;20433;-77
2023/12/11 03:50:00;;;;;;;16.70;3.10;;;;;;;-148.88;100.00;-17125.47;5036629;28;20440;-77
2023/12/11 03:52:25;;;;;;;23.13;3.47;;;;;;;-148.88;100.00;-17125.47;5035069;28;20017;-77
2023/12/11 03:54:51;;;;;;;34.58;7.93;;;;;;;-148.88;100.00;-17125.47;5036545;28;20384;-77
2023/12/11 03:57:17;;;;;;;33.10;7.57;;;;;;;-148.88;100.00;-17125.47;5035646;28;20029;-77
2023/12/11 03:59:42;;;;;;;28.45;5.18;;;;;;;-148.88;100.00;-17125.47;5036038;28;20041;-77
2023/12/11 04:02:08;;;;;;;31.88;6.90;;;;;;;-148.88;100.00;-17125.47;5036122;28;20418;-77
2023/12/11 04:04:33;;;;;;;30.52;7.35;;;;;;;-148.88;100.00;-17125.47;5035747;28;20101;-77
2023/12/11 04:06:59;;;;;;;32.00;6.82;;;;;;;-148.88;100.00;-17125.47;5035314;28;20540;-77
2023/12/11 04:09:24;;;;;;;26.63;6.68;;;;;;;-148.88;100.00;-17125.47;5034202;28;20071;-77
2023/12/11 04:11:50;;;;;;;23.67;6.65;;;;;;;-148.88;100.00;-17125.47;5034732;28;20490;-77
2023/12/11 04:14:15;;;;;;;18.45;3.10;;;;;;;-148.88;100.00;-17125.47;5036152;28;20463;-77
2023/12/11 04:16:43;;;;;;;18.55;3.58;;;;;;;-148.88;100.00;-17125.47;5035927;28;20013;-77
2023/12/11 04:19:12;;;;;;;31.05;6.85;;;;;;;-148.88;100.00;-17125.47;5034093;28;20052;-77
2023/12/11 04:21:38;;;;;;;34.25;6.57;;;;;;;-148.88;100.00;-17125.47;5033746;28;20017;-77
2023/12/11 04:24:04;;;;;;;17.70;2.58;;;;;;;-148.88;100.00;-17125.47;5033641;28;20549;-77
2023/12/11 04:26:29;;;;;;;18.63;3.53;;;;;;;-148.88;100.00;-17125.47;5034652;28;20025;-77
2023/12/11 04:28:55;;;;;;;18.45;2.58;;;;;;;-148.88;100.00;-17125.47;5034594;28;20029;-77
2023/12/11 04:31:23;;;;;;;26.70;6.25;;;;;;;-148.88;100.00;-17125.47;5033215;28;20025;-77
2023/12/11 04:33:49;;;;;;;17.83;3.35;;;;;;;-148.88;100.00;-17125.47;5034647;28;20032;-77
2023/12/11 04:36:14;;;;;;;20.52;3.85;;;;;;;-148.88;100.00;-17125.47;5034453;28;20140;-77
2023/12/11 04:38:40;;;;;;;18.08;3.53;;;;;;;-148.88;100.00;-17125.47;5034591;28;20097;-77
2023/12/11 04:41:05;;;;;;;17.52;3.17;;;;;;;-148.88;100.00;-17125.47;5033196;28;20028;-78
2023/12/11 04:43:33;;;;;;;28.65;6.07;;;;;;;-148.88;100.00;-17125.47;5034636;28;20028;-77
2023/12/11 04:45:59;;;;;;;18.17;2.80;;;;;;;-148.88;100.00;-17125.47;5033681;28;20018;-77
2023/12/11 04:48:24;;;;;;;18.33;2.83;;;;;;;-148.88;100.00;-17125.47;5035244;28;20033;-77
2023/12/11 04:50:50;;;;;;;25.38;5.35;;;;;;;-148.88;100.00;-17125.47;5033526;28;20087;-77
2023/12/11 04:53:15;;;;;;;28.55;6.03;;;;;;;-148.88;100.00;-17125.47;5033377;28;20392;-77
2023/12/11 04:55:40;;;;;;;25.35;5.72;;;;;;;-148.88;100.00;-17125.47;5034553;28;20036;-77
2023/12/11 04:58:06;;;;;;;20.63;3.88;;;;;;;-148.88;100.00;-17125.47;5033227;28;20021;-77
2023/12/11 05:00:31;;;;;;;27.25;5.95;;;;;;;-148.88;100.00;-17125.47;5034427;28;20028;-77
2023/12/11 05:02:57;;;;;;;12.40;2.45;;;;;;;-148.88;100.00;-17125.47;5034638;28;20028;-77
2023/12/11 05:05:22;;;;;;;18.92;3.13;;;;;;;-148.88;100.00;-17125.47;5035217;28;20025;-78
2023/12/11 05:07:48;;;;;;;19.65;2.83;;;;;;;-148.88;100.00;-17125.47;5035823;28;20045;-77
2023/12/11 05:10:13;;;;;;;26.30;3.35;;;;;;;-148.88;100.00;-17125.47;5035563;28;20025;-78
2023/12/11 05:12:38;;;;;;;25.90;5.78;;;;;;;-148.88;100.00;-17125.47;5035463;28;20524;-77
2023/12/11 05:15:05;;;;;;;19.42;3.30;;;;;;;-148.88;100.00;-17125.47;5067116;22;20040;-88
2023/12/11 05:17:30;;;;;;;29.95;6.22;;;;;;;-148.88;100.00;-17125.47;5074642;28;20025;-87
2023/12/11 05:19:56;;;;;;;21.33;3.45;;;;;;;-148.88;100.00;-17125.47;5074124;28;20483;-88
2023/12/11 05:22:21;;;;;;;16.63;2.60;;;;;;;-148.88;100.00;-17125.47;5072528;28;20115;-87
2023/12/11 05:24:48;;;;;;;31.83;6.18;;;;;;;-148.88;100.00;-17125.47;5073808;28;20082;-86
2023/12/11 05:27:16;;;;;;;32.03;6.28;;;;;;;-148.88;100.00;-17125.47;5072332;28;20055;-87
2023/12/11 05:29:42;;;;;;;18.10;2.85;;;;;;;-148.88;100.00;-17125.47;5073866;28;20458;-87
2023/12/11 05:32:10;;;;;;;29.45;5.78;;;;;;;-148.88;100.00;-17125.47;5074282;28;20020;-87
2023/12/11 05:34:35;;;;;;;18.20;3.15;;;;;;;-148.88;100.00;-17125.47;5072385;28;20025;-86
2023/12/11 05:37:01;;;;;;;18.55;4.45;;;;;;;-148.88;100.00;-17125.47;5073521;28;20035;-86
2023/12/11 05:39:26;;;;;;;19.98;3.20;;;;;;;-148.88;100.00;-17125.47;5071923;28;20035;-86
2023/12/11 05:41:52;;;;;;;25.55;5.07;;;;;;;-148.88;100.00;-17125.47;5072490;28;20024;-85
2023/12/11 05:44:18;;;;;;;28.27;4.97;;;;;;;-148.88;100.00;-17125.47;5072816;28;20020;-86
2023/12/11 05:46:43;;;;;;;16.92;2.58;;;;;;;-148.88;100.00;-17125.47;5072163;28;20028;-87
2023/12/11 05:49:10;;;;;;;15.35;2.47;;;;;;;-148.88;100.00;-17125.47;5073818;28;20028;-86
2023/12/11 05:51:35;;;;;;;15.88;2.47;;;;;;;-148.88;100.00;-17125.47;5073828;28;20032;-86
2023/12/11 05:54:01;;;;;;;24.58;4.53;;;;;;;-148.88;100.00;-17125.47;5074032;28;20028;-86
2023/12/11 05:56:26;;;;;;;15.82;2.97;;;;;;;-148.88;100.00;-17125.47;5072547;28;20024;-87
2023/12/11 05:58:53;;;;;;;20.05;2.42;;;;;;;-148.88;100.00;-17125.47;5072816;28;20050;-87
2023/12/11 06:01:19;;;;;;;26.88;5.90;;;;;;;-148.88;100.00;-17125.47;5073555;28;20042;-86
2023/12/11 06:03:57;;;;;;;13.85;2.42;;;;;;;-148.88;100.00;-17125.47;5073524;28;20024;-88
2023/12/11 06:06:22;;;;;;;24.75;5.50;;;;;;;-148.88;100.00;-17125.47;5072536;28;20020;-87
2023/12/11 06:08:48;;;;;;;22.58;5.85;;;;;;;-148.88;100.00;-17125.47;5073781;28;20032;-87
2023/12/11 06:11:16;;;;;;;15.98;2.80;;;;;;;-148.88;100.00;-17125.47;5073420;28;20399;-87
2023/12/11 06:13:42;;;;;;;11.48;2.17;;;;;;;-148.88;100.00;-17125.47;5073316;28;20059;-86
2023/12/11 06:16:11;;;;;;;24.48;5.47;;;;;;;-148.88;100.00;-17125.47;5072342;28;20025;-86
2023/12/11 06:18:38;;;;;;;13.00;2.22;;;;;;;-148.88;100.00;-17125.47;5072702;28;20055;-86
2023/12/11 06:21:17;;;;;;;27.05;5.20;;;;;;;-148.88;100.00;-17125.47;5072224;28;20021;-84
2023/12/11 06:23:42;;;;;;;21.70;4.97;;;;;;;-148.88;100.00;-17125.47;5072678;28;20084;-85
2023/12/11 06:26:07;;;;;;;16.65;2.90;;;;;;;-148.88;100.00;-17125.47;5073895;28;20021;-83
2023/12/11 06:28:33;;;;;;;24.13;5.88;;;;;;;-148.88;100.00;-17125.47;5071939;28;20060;-87
2023/12/11 06:30:58;;;;;;;27.83;3.40;;;;;;;-148.88;100.00;-17125.47;5073036;28;20091;-85
2023/12/11 06:33:24;;;;;;;23.92;5.70;;;;;;;-148.88;100.00;-17125.47;5071546;28;20043;-85
2023/12/11 06:35:49;;;;;;;20.80;5.82;;;;;;;-148.88;100.00;-17125.47;5073419;28;20433;-86
2023/12/11 06:38:15;;;;;;;6.22;1.90;;;;;;;-148.88;100.00;-17125.47;5071403;28;20069;-86
2023/12/11 06:40:41;;;;;;;13.75;2.42;;;;;;;-148.88;100.00;-17125.47;5072346;28;20029;-84
2023/12/11 06:43:06;;;;;;;15.07;3.95;;;;;;;-148.88;100.00;-17125.47;5071794;28;20035;-85
2023/12/11 06:45:31;;;;;;;23.80;5.20;;;;;;;-148.88;100.00;-17125.47;5071758;28;20097;-85
2023/12/11 06:47:57;;;;;;;15.55;3.05;;;;;;;-148.88;100.00;-17125.47;5072279;28;20028;-84
2023/12/11 06:50:22;;;;;;;16.08;2.90;;;;;;;-148.88;100.00;-17125.47;5072325;28;20029;-85
2023/12/11 06:52:48;;;;;;;13.23;2.83;;;;;;;-148.88;100.00;-17125.47;5072803;28;20021;-84
2023/12/11 06:55:13;;;;;;;25.80;6.38;;;;;;;-148.88;100.00;-17125.47;5073194;28;20073;-85
2023/12/11 06:57:42;;;;;;;25.77;5.70;;;;;;;-148.88;100.00;-17125.47;5072507;28;20024;-83
2023/12/11 07:00:09;;;;;;;17.88;3.10;;;;;;;-148.88;100.00;-17125.47;5073662;28;20070;-85
2023/12/11 07:02:35;;;;;;;21.77;4.00;;;;;;;-148.88;100.00;-17125.47;5071449;28;20048;-84
2023/12/11 07:05:00;;;;;;;14.02;3.65;;;;;;;-148.88;100.00;-17125.47;5071320;28;20016;-85
2023/12/11 07:07:25;;;;;;;18.80;5.38;;;;;;;-148.88;100.00;-17125.47;5073935;28;20016;-85
2023/12/11 07:09:51;;;;;;;25.17;3.55;;;;;;;-148.88;100.00;-17125.47;5074920;28;20033;-84
2023/12/11 07:12:17;;;;;;;23.42;5.95;;;;;;;-148.88;100.00;-17125.47;5074892;28;20024;-86
2023/12/11 07:14:44;;;;;;;14.45;2.90;;;;;;;-148.88;100.00;-17125.47;5075732;28;20024;-85
2023/12/11 07:17:18;;;;;;;21.00;3.15;;;;;;;-148.88;100.00;-17125.47;5075927;28;20100;-85
2023/12/11 07:19:44;;;;;;;9.75;2.60;;;;;;;-148.88;100.00;-17125.47;5074544;28;20035;-84
2023/12/11 07:22:09;;;;;;;21.77;5.38;;;;;;;-148.88;100.00;-17125.47;5075688;28;20020;-85
2023/12/11 07:24:35;;;;;;;20.05;3.47;;;;;;;-148.88;100.00;-17125.47;5074792;28;20399;-83
2023/12/11 07:27:00;;;;;;;18.52;3.38;;;;;;;-148.88;100.00;-17125.47;5075826;28;20345;-84
2023/12/11 07:29:26;;;;;;;12.05;2.88;;;;;;;-148.88;100.00;-17125.47;5074801;28;20487;-84
2023/12/11 07:31:51;;;;;;;19.63;3.45;;;;;;;-148.88;100.00;-17125.47;5074734;28;20116;-84
2023/12/11 07:34:17;;;;;;;17.02;6.10;;;;;;;-148.88;100.00;-17125.47;5075316;28;20433;-82
2023/12/11 07:36:42;;;;;;;17.73;3.55;;;;;;;-148.88;100.00;-17125.47;5075788;28;20023;-85
2023/12/11 07:39:07;;;;;;;13.98;3.35;;;;;;;-148.88;100.00;-17125.47;5075330;28;20103;-84
2023/12/11 07:41:35;;;;;;;17.50;2.85;;;;;;;-148.88;100.00;-17125.47;5074472;28;20478;-85
2023/12/11 07:44:00;;;;;;;22.45;6.20;;;;;;;-148.88;100.00;-17125.47;5075433;28;20112;-83
2023/12/11 07:46:25;;;;;;;9.18;2.80;;;;;;;-148.88;100.00;-17125.47;5075598;28;20479;-84
2023/12/11 07:48:51;;;;;;;13.40;3.50;;;;;;;-148.88;100.00;-17125.47;5075717;28;20170;-85
2023/12/11 07:51:23;;;;;;;12.35;3.72;;;;;;;-148.88;100.00;-17125.47;5073572;28;20071;-85
2023/12/11 07:53:48;;;;;;;14.00;4.45;;;;;;;-148.88;100.00;-17125.47;5075806;28;20031;-84
2023/12/11 07:56:18;;;;;;;19.63;3.83;;;;;;;-148.88;100.00;-17125.47;5074224;28;20017;-82
2023/12/11 07:58:44;;;;;;;21.85;7.03;;;;;;;-148.88;100.00;-17125.47;5075469;28;20514;-85
2023/12/11 08:01:10;;;;;;;15.75;4.18;;;;;;;-148.88;100.00;-17125.47;5075510;28;20147;-86
2023/12/11 08:03:36;;;;;;;13.27;3.65;;;;;;;-148.88;100.00;-17125.47;5075885;28;20024;-85
2023/12/11 08:06:01;;;;;;;18.98;3.97;;;;;;;-148.88;100.00;-17125.47;5073931;28;20024;-86
2023/12/11 08:08:27;;;;;;;19.10;6.47;;;;;;;-148.88;100.00;-17125.47;5074384;28;20479;-87
2023/12/11 08:10:52;;;;;;;14.23;3.30;;;;;;;-148.88;100.00;-17125.47;5074162;28;20501;-85
2023/12/11 08:13:18;;;;;;;13.38;3.22;;;;;;;-148.88;100.00;-17125.47;5074219;28;20037;-86
2023/12/11 08:15:43;;;;;;;17.20;3.35;;;;;;;-148.88;100.00;-17125.47;5075262;28;20465;-85
2023/12/11 08:18:09;;;;;;;20.58;5.47;;;;;;;-148.88;100.00;-17125.47;5073509;28;20021;-85
2023/12/11 08:20:34;;;;;;;14.23;3.40;;;;;;;-148.88;100.00;-17125.47;5074915;28;20111;-87
2023/12/11 08:23:00;;;;;;;16.33;3.13;;;;;;;-148.88;100.00;-17125.47;5075090;28;20529;-86
2023/12/11 08:25:26;;;;;;;8.93;3.33;;;;;;;-148.88;100.00;-17125.47;5073452;28;20490;-86
2023/12/11 08:27:55;;;;;;;23.40;6.40;;;;;;;-148.88;100.00;-17125.47;5073253;28;20410;-86
2023/12/11 08:30:20;;;;;;;14.73;3.20;;;;;;;-148.88;100.00;-17125.47;5075320;28;20035;-86
2023/12/11 08:32:46;;;;;;;19.10;5.65;;;;;;;-148.88;100.00;-17125.47;5074823;28;20024;-87
2023/12/11 08:35:34;;;;;;;15.98;4.32;;;;;;;-148.88;100.00;-17125.47;5073567;28;20032;-89
2023/12/11 08:38:03;;;;;;;16.73;4.18;;;;;;;-148.88;100.00;-17125.47;5075055;28;20030;-88
2023/12/11 08:40:28;;;;;;;10.38;3.38;;;;;;;-148.88;100.00;-17125.47;5073657;28;20032;-88
2023/12/11 08:42:54;;;;;;;12.82;3.67;;;;;;;-148.88;100.00;-17125.47;5073380;28;20016;-86
2023/12/11 08:45:34;;;;;;;12.10;3.20;;;;;;;-148.88;100.00;-17125.47;5074238;28;20068;-86
2023/12/11 08:48:00;;;;;;;16.08;5.38;;;;;;;-148.88;100.00;-17125.47;5073277;28;20533;-87
2023/12/11 08:50:53;;;;;;;15.30;3.65;;;;;;;-148.88;100.00;-17125.47;5072918;28;20036;-85
2023/12/11 08:53:33;;;;;;;13.65;3.30;;;;;;;-148.88;100.00;-17125.47;5072758;28;20129;-87
2023/12/11 08:56:10;;;;;;;13.45;2.90;;;;;;;-148.88;100.00;-17125.47;5073599;28;20024;-88
2023/12/11 08:58:36;;;;;;;15.65;3.15;;;;;;;-148.88;100.00;-17125.47;5089439;22;20080;-79
2023/12/11 09:01:03;;;;;;;16.80;3.03;;;;;;;-148.88;100.00;-17125.47;5098457;28;20036;-79
2023/12/11 09:03:28;;;;;;;15.05;3.58;;;;;;;-148.88;100.00;-17125.47;5098233;28;20028;-79
2023/12/11 09:05:54;;;;;;;22.85;6.10;;;;;;;-148.88;100.00;-17125.47;5098041;28;20100;-79
2023/12/11 09:08:19;;;;;;;16.33;3.45;;;;;;;-148.88;100.00;-17125.47;5097852;28;20482;-80
2023/12/11 09:10:45;;;;;;;19.23;5.97;;;;;;;-148.88;100.00;-17125.47;5098278;28;20071;-79
2023/12/11 09:13:10;;;;;;;12.85;3.40;;;;;;;-148.88;100.00;-17125.47;5100883;28;20463;-79
2023/12/11 09:15:36;;;;;;;13.82;3.35;;;;;;;-148.88;100.00;-17125.47;5100144;28;20035;-79
2023/12/11 09:18:02;;;;;;;11.68;2.97;;;;;;;-148.88;100.00;-17125.47;5100109;28;20102;-79
2023/12/11 09:20:27;;;;;;;10.57;3.25;;;;;;;-148.88;100.00;-17125.47;5099734;28;20034;-80
2023/12/11 09:22:53;;;;;;;8.18;2.70;;;;;;;-148.88;100.00;-17125.47;5097718;28;20040;-79
2023/12/11 09:25:18;;;;;;;9.35;2.47;;;;;;;-148.88;100.00;-17125.47;5098207;28;20024;-79
2023/12/11 09:27:44;;;;;;;8.80;2.92;;;;;;;-148.88;100.00;-17125.47;5098716;28;20067;-79
2023/12/11 09:30:09;;;;;;;12.43;4.78;;;;;;;-148.88;100.00;-17125.47;5096115;28;20024;-79
2023/12/11 09:32:35;;;;;;;13.38;4.45;;;;;;;-148.88;100.00;-17125.47;5096769;28;20023;-79
2023/12/11 09:35:01;;;;;;;5.82;2.10;;;;;;;-148.88;100.00;-17125.47;5098475;28;20031;-79
2023/12/11 09:37:26;;;;;;;5.82;1.98;;;;;;;-148.88;100.00;-17125.47;5098917;28;20513;-80
2023/12/11 09:39:51;;;;;;;13.00;4.78;;;;;;;-148.88;100.00;-17125.47;5098053;28;20020;-80
2023/12/11 09:42:18;;;;;;;10.73;4.32;;;;;;;-148.88;100.00;-17125.47;5098054;28;20073;-80
2023/12/11 09:44:47;;;;;;;12.25;4.97;;;;;;;-148.88;100.00;-17125.47;5097925;28;20073;-81
2023/12/11 09:47:52;;;;;;;7.82;2.80;;;;;;;-148.88;100.00;-17125.47;5095152;28;20028;-80
2023/12/11 09:50:19;;;;;;;11.13;3.10;;;;;;;-148.88;100.00;-17125.47;5054185;28;20128;-80
2023/12/11 09:52:45;;;;;;;13.02;2.92;;;;;;;-148.88;100.00;-17125.47;5054832;28;20033;-81
2023/12/11 09:55:11;;;;;;;14.63;4.90;;;;;;;-148.88;100.00;-17125.47;5074302;28;20047;-80
2023/12/11 09:57:41;;;;;;;9.88;2.88;;;;;;;-148.88;100.00;-17125.47;5096256;28;20016;-80
2023/12/11 10:00:11;;;;;;;12.82;3.03;;;;;;;-148.88;100.00;-17125.47;5097517;28;20031;-79
2023/12/11 10:02:39;;;;;;;19.23;5.13;;;;;;;-148.88;100.00;-17125.47;5095600;28;20024;-78
2023/12/11 10:05:09;;;;;;;6.32;2.78;;;;;;;-148.88;100.00;-17125.47;5095608;28;20024;-78
2023/12/11 10:07:41;;;;;;;10.13;2.20;;;;;;;-148.88;100.00;-17125.47;5096165;28;20020;-78
2023/12/11 10:10:21;;;;;;;18.63;4.55;;;;;;;-148.88;100.00;-17125.47;5094920;28;20028;-78
2023/12/11 10:12:47;;;;;;;6.55;1.98;;;;;;;-148.88;100.00;-17125.47;5096046;28;20028;-79
2023/12/11 10:15:19;;;;;;;10.30;3.28;;;;;;;-148.88;100.00;-17125.47;5094953;28;20474;-78
2023/12/11 10:17:44;;;;;;;5.15;1.90;;;;;;;-148.88;100.00;-17125.47;5096336;28;20079;-79
2023/12/11 10:20:16;;;;;;;10.52;2.50;;;;;;;-148.88;100.00;-17125.47;5095938;28;20048;-78
2023/12/11 10:22:41;;;;;;;12.02;2.28;;;;;;;-148.88;100.00;-17125.47;5096997;28;20172;-78
2023/12/11 10:25:07;;;;;;;6.15;2.90;;;;;;;-148.88;100.00;-17125.47;5096574;28;20470;-78
2023/12/11 10:27:33;;;;;;;3.80;1.27;;;;;;;-148.88;100.00;-17125.47;5097947;28;20067;-78
2023/12/11 10:30:13;;;;;;;5.85;1.38;;;;;;;-148.88;100.00;-17125.47;5097528;28;20024;-78
2023/12/11 10:32:39;;;;;;;8.32;1.25;;;;;;;-148.88;100.00;-17125.47;5096217;28;20073;-78
2023/12/11 10:35:06;;;;;;;9.77;2.50;;;;;;;-148.88;100.00;-17125.47;5095451;28;20051;-78
2023/12/11 10:37:34;;;;;;;9.82;2.88;;;;;;;-148.88;100.00;-17125.47;5096216;28;20100;-78
2023/12/11 10:40:00;;;;;;;5.97;1.65;;;;;;;-148.88;100.00;-17125.47;5095313;28;20020;-78
2023/12/11 10:42:26;;;;;;;3.90;1.00;;;;;;;-148.88;100.00;-17125.47;5098529;28;20024;-78
2023/12/11 10:44:54;;;;;;;8.15;1.95;;;;;;;-148.88;100.00;-17125.47;5099356;28;20028;-78
2023/12/11 10:47:20;;;;;;;11.98;2.90;;;;;;;-148.88;100.00;-17125.47;5099996;28;20020;-78
2023/12/11 10:49:48;;;;;;;7.60;1.67;;;;;;;-148.88;100.00;-17125.47;5100975;28;20032;-80
2023/12/11 10:52:14;;;;;;;7.60;2.75;;;;;;;-148.88;100.00;-17125.47;5099774;28;20053;-80